createdAt,value
2019-02-15T00:02:28.291Z,102168.75
2019-02-15T00:04:56.647Z,102162.96
2019-02-15T00:07:24.973Z,102156.44
2019-02-15T00:09:53.403Z,102163.41
2019-02-15T00:12:21.771Z,102162.10
2019-02-15T00:14:50.106Z,102152.95
2019-02-15T00:17:22.125Z,102156.55
2019-02-15T00:19:52.474Z,102149.02
2019-02-15T00:22:20.805Z,102143.36
2019-02-15T00:24:49.183Z,102147.16
2019-02-15T00:27:17.517Z,102154.08
2019-02-15T00:29:45.906Z,102152.64
2019-02-15T00:32:14.396Z,102150.92
2019-02-15T00:34:42.717Z,102154.62
2019-02-15T00:37:11.625Z,102151.30
2019-02-15T00:39:39.972Z,102152.70
2019-02-15T00:42:08.748Z,102153.99
2019-02-15T00:44:37.628Z,102152.73
2019-02-15T00:47:10.020Z,102147.72
2019-02-15T00:49:40.319Z,102145.86
2019-02-15T00:52:11.053Z,102144.66
2019-02-15T00:54:43.249Z,102145.11
2019-02-15T00:57:16.226Z,102145.55
2019-02-15T00:59:47.193Z,102138.43
2019-02-15T01:02:18.080Z,102143.09
2019-02-15T01:04:49.946Z,102134.77
2019-02-15T01:07:19.712Z,102137.45
2019-02-15T01:09:50.817Z,102134.23
2019-02-15T01:12:21.910Z,102131.72
2019-02-15T01:14:50.299Z,102127.14
2019-02-15T01:17:18.650Z,102127.09
2019-02-15T01:19:47.053Z,102125.84
2019-02-15T01:22:15.476Z,102125.56
2019-02-15T01:24:43.840Z,102124.22
2019-02-15T01:27:15.078Z,102122.65
2019-02-15T01:29:48.075Z,102121.80
2019-02-15T01:32:19.175Z,102124.70
2019-02-15T01:34:50.233Z,102123.10
2019-02-15T01:37:18.550Z,102122.60
2019-02-15T01:39:50.535Z,102113.89
2019-02-15T01:42:20.111Z,102116.72
2019-02-15T01:44:50.872Z,102118.98
2019-02-15T01:47:19.578Z,102115.07
2019-02-15T01:49:48.075Z,102114.69
2019-02-15T01:52:16.463Z,102112.19
2019-02-15T01:54:44.830Z,102115.55
2019-02-15T01:57:13.375Z,102109.59
2019-02-15T01:59:41.878Z,102115.34
2019-02-15T02:02:10.615Z,102110.53
2019-02-15T02:04:39.712Z,102101.75
2019-02-15T02:07:08.073Z,102107.56
2019-02-15T02:09:36.412Z,102098.48
2019-02-15T02:12:05.328Z,102095.00
2019-02-15T02:14:33.664Z,102086.08
2019-02-15T02:17:02.173Z,102082.44
2019-02-15T02:19:30.520Z,102073.94
2019-02-15T02:21:59.040Z,102073.38
2019-02-15T02:24:27.366Z,102073.38
2019-02-15T02:26:55.718Z,102059.86
2019-02-15T02:29:24.064Z,102063.64
2019-02-15T02:31:52.410Z,102057.09
2019-02-15T02:34:20.809Z,102067.95
2019-02-15T02:36:50.683Z,102063.13
2019-02-15T02:39:19.075Z,102058.51
2019-02-15T02:41:47.479Z,102056.94
2019-02-15T02:44:15.911Z,102062.45
2019-02-15T02:46:44.306Z,102057.69
2019-02-15T02:49:12.924Z,102060.89
2019-02-15T02:51:41.819Z,102057.13
2019-02-15T02:54:10.323Z,102052.16
2019-02-15T02:56:38.655Z,102054.03
2019-02-15T02:59:07.029Z,102055.14
2019-02-15T03:01:35.449Z,102055.46
2019-02-15T03:04:03.981Z,102053.56
2019-02-15T03:06:32.310Z,102054.80
2019-02-15T03:09:00.656Z,102052.98
2019-02-15T03:11:29.075Z,102051.42
2019-02-15T03:13:57.424Z,102054.28
2019-02-15T03:16:25.782Z,102050.23
2019-02-15T03:18:54.107Z,102047.77
2019-02-15T03:21:22.451Z,102053.81
2019-02-15T03:23:50.826Z,102048.64
2019-02-15T03:26:19.259Z,102056.47
2019-02-15T03:28:47.619Z,102052.73
2019-02-15T03:31:15.964Z,102056.27
2019-02-15T03:33:44.342Z,102060.81
2019-02-15T03:36:15.707Z,102065.86
2019-02-15T03:38:47.879Z,102066.42
2019-02-15T03:41:18.881Z,102066.08
2019-02-15T03:43:47.226Z,102070.90
2019-02-15T03:46:15.586Z,102071.67
2019-02-15T03:48:43.919Z,102059.20
2019-02-15T03:51:12.819Z,102063.16
2019-02-15T03:53:41.150Z,102061.78
2019-02-15T03:56:09.899Z,102066.04
2019-02-15T03:58:38.342Z,102066.92
2019-02-15T04:01:06.800Z,102056.92
2019-02-15T04:03:35.190Z,102063.14
2019-02-15T04:06:03.680Z,102063.28
2019-02-15T04:08:32.151Z,102066.75
2019-02-15T04:11:00.491Z,102066.30
2019-02-15T04:13:28.958Z,102064.52
2019-02-15T04:15:57.316Z,102067.69
2019-02-15T04:18:25.671Z,102072.20
2019-02-15T04:20:54.026Z,102072.52
2019-02-15T04:23:22.370Z,102071.64
2019-02-15T04:25:50.710Z,102072.13
2019-02-15T04:28:19.106Z,102070.34
2019-02-15T04:30:47.450Z,102076.51
2019-02-15T04:33:15.793Z,102076.02
2019-02-15T04:35:44.176Z,102080.14
2019-02-15T04:38:12.812Z,102082.53
2019-02-15T04:40:41.165Z,102088.55
2019-02-15T04:43:09.717Z,102085.34
2019-02-15T04:45:38.074Z,102094.61
2019-02-15T04:48:06.433Z,102094.70
2019-02-15T04:50:34.753Z,102095.42
2019-02-15T04:53:03.310Z,102089.61
2019-02-15T04:55:31.721Z,102088.20
2019-02-15T04:58:00.070Z,102089.41
2019-02-15T05:00:28.406Z,102087.36
2019-02-15T05:02:57.559Z,102083.66
2019-02-15T05:05:25.955Z,102093.72
2019-02-15T05:07:54.384Z,102095.71
2019-02-15T05:10:22.744Z,102093.93
2019-02-15T05:12:51.105Z,102089.31
2019-02-15T05:15:19.536Z,102091.19
2019-02-15T05:17:48.005Z,102087.83
2019-02-15T05:20:16.335Z,102091.76
2019-02-15T05:22:44.700Z,102085.92
2019-02-15T05:25:13.528Z,102089.72
2019-02-15T05:27:41.875Z,102084.21
2019-02-15T05:30:10.645Z,102085.38
2019-02-15T05:32:38.994Z,102085.88
2019-02-15T05:35:07.457Z,102082.06
2019-02-15T05:40:40.958Z,102088.77
2019-02-15T05:43:09.572Z,102082.59
2019-02-15T05:45:37.909Z,102085.83
2019-02-15T05:48:06.743Z,102089.52
2019-02-15T05:50:35.093Z,102091.65
2019-02-15T05:53:03.537Z,102091.29
2019-02-15T05:55:31.880Z,102087.32
2019-02-15T05:58:00.210Z,102088.64
2019-02-15T06:00:36.729Z,102092.05
2019-02-15T06:02:58.897Z,102096.48
2019-02-15T06:05:28.002Z,102099.12
2019-02-15T06:07:56.329Z,102097.20
2019-02-15T06:10:25.392Z,102100.91
2019-02-15T06:12:53.713Z,102101.53
2019-02-15T06:15:22.058Z,102103.84
2019-02-15T06:17:50.434Z,102099.12
2019-02-15T06:20:18.786Z,102105.02
2019-02-15T06:22:47.177Z,102103.45
2019-02-15T06:25:15.518Z,102103.45
2019-02-15T06:27:43.845Z,102108.42
2019-02-15T06:30:12.198Z,102109.66
2019-02-15T06:32:40.622Z,102100.97
2019-02-15T06:35:09.793Z,102105.36
2019-02-15T06:37:38.134Z,102107.86
2019-02-15T06:40:07.711Z,102113.92
2019-02-15T06:42:36.047Z,102105.05
2019-02-15T06:45:06.016Z,102109.94
2019-02-15T06:47:34.351Z,102108.92
2019-02-15T06:50:02.724Z,102105.69
2019-02-15T06:52:31.057Z,102107.55
2019-02-15T06:54:59.389Z,102105.35
2019-02-15T06:57:27.756Z,102107.81
2019-02-15T06:59:59.851Z,102107.20
2019-02-15T07:02:31.056Z,102116.06
2019-02-15T07:05:02.184Z,102115.31
2019-02-15T07:07:30.545Z,102115.69
2019-02-15T07:09:58.866Z,102110.27
2019-02-15T07:12:27.249Z,102113.15
2019-02-15T07:14:55.582Z,102110.31
2019-02-15T07:17:23.921Z,102106.23
2019-02-15T07:19:52.284Z,102106.30
2019-02-15T07:22:20.600Z,102104.17
2019-02-15T07:24:48.991Z,102105.23
2019-02-15T07:27:17.326Z,102105.22
2019-02-15T07:29:45.658Z,102097.02
2019-02-15T07:32:13.983Z,102089.04
2019-02-15T07:34:42.350Z,102096.95
2019-02-15T07:37:10.703Z,102087.73
2019-02-15T07:39:39.030Z,102089.49
2019-02-15T07:42:07.609Z,102099.93
2019-02-15T07:44:35.944Z,102096.92
2019-02-15T07:47:04.269Z,102094.58
2019-02-15T07:49:32.635Z,102096.14
2019-02-15T07:52:01.831Z,102089.97
2019-02-15T07:54:30.261Z,102086.30
2019-02-15T07:56:58.593Z,102088.92
2019-02-15T07:59:26.943Z,102091.17
2019-02-15T08:02:01.592Z,102089.34
2019-02-15T08:04:25.675Z,102092.45
2019-02-15T08:06:54.029Z,102088.61
2019-02-15T08:09:22.816Z,102080.74
2019-02-15T08:11:51.149Z,102089.52
2019-02-15T08:14:19.469Z,102085.08
2019-02-15T08:16:47.836Z,102084.20
2019-02-15T08:19:16.135Z,102084.63
2019-02-15T08:21:44.475Z,102083.61
2019-02-15T08:24:12.800Z,102081.43
2019-02-15T08:26:41.227Z,102087.58
2019-02-15T08:29:09.550Z,102096.53
2019-02-15T08:31:37.911Z,102098.47
2019-02-15T08:34:06.474Z,102095.77
2019-02-15T08:36:34.800Z,102095.25
2019-02-15T08:39:05.119Z,102094.80
2019-02-15T08:41:33.470Z,102089.78
2019-02-15T08:44:02.187Z,102096.77
2019-02-15T08:46:30.558Z,102092.50
2019-02-15T08:48:58.880Z,102094.32
2019-02-15T08:51:27.211Z,102096.34
2019-02-15T08:53:55.560Z,102099.66
2019-02-15T08:56:23.874Z,102091.91
2019-02-15T08:58:52.226Z,102094.70
2019-02-15T09:01:20.568Z,102087.66
2019-02-15T09:03:48.934Z,102086.03
2019-02-15T09:06:17.256Z,102087.27
2019-02-15T09:08:45.599Z,102092.14
2019-02-15T09:11:13.935Z,102094.95
2019-02-15T09:13:42.279Z,102087.81
2019-02-15T09:16:10.804Z,102088.48
2019-02-15T09:18:39.234Z,102081.45
2019-02-15T09:21:07.879Z,102081.03
2019-02-15T09:23:36.219Z,102081.58
2019-02-15T09:26:04.621Z,102079.16
2019-02-15T09:28:35.617Z,102077.34
2019-02-15T09:31:04.005Z,102077.09
2019-02-15T09:33:32.453Z,102073.17
2019-02-15T09:36:00.780Z,102073.58
2019-02-15T09:38:29.115Z,102071.36
2019-02-15T09:40:57.674Z,102066.28
2019-02-15T09:43:26.001Z,102065.39
2019-02-15T09:45:54.449Z,102060.00
2019-02-15T09:48:22.761Z,102057.21
2019-02-15T09:50:51.255Z,102060.23
2019-02-15T09:53:20.627Z,102058.91
2019-02-15T09:55:48.990Z,102062.54
2019-02-15T09:58:17.335Z,102055.43
2019-02-15T10:00:45.664Z,102056.77
2019-02-15T10:03:13.988Z,102062.84
2019-02-15T10:05:42.348Z,102062.84
2019-02-15T10:08:10.701Z,102054.22
2019-02-15T10:10:39.027Z,102052.90
2019-02-15T10:13:07.699Z,102062.35
2019-02-15T10:15:36.047Z,102051.30
2019-02-15T10:18:04.658Z,102053.48
2019-02-15T10:20:32.966Z,102057.37
2019-02-15T10:23:01.451Z,102049.58
2019-02-15T10:25:29.804Z,102054.91
2019-02-15T10:27:58.224Z,102049.94
2019-02-15T10:30:26.656Z,102047.42
2019-02-15T10:32:54.990Z,102044.22
2019-02-15T10:35:23.333Z,102041.81
2019-02-15T10:37:51.725Z,102039.40
2019-02-15T10:40:20.036Z,102036.38
2019-02-15T10:42:48.389Z,102025.51
2019-02-15T10:45:16.669Z,102022.03
2019-02-15T10:47:45.052Z,102024.03
2019-02-15T10:50:13.535Z,102018.99
2019-02-15T10:52:41.933Z,102024.69
2019-02-15T10:55:10.930Z,102014.13
2019-02-15T10:57:39.270Z,101999.53
2019-02-15T11:00:13.620Z,102002.77
2019-02-15T11:02:42.010Z,102005.76
2019-02-15T11:05:11.174Z,101999.37
2019-02-15T11:07:39.511Z,102002.43
2019-02-15T11:10:09.312Z,101990.14
2019-02-15T11:12:37.773Z,101994.50
2019-02-15T11:15:09.970Z,101990.36
2019-02-15T11:17:38.316Z,101985.14
2019-02-15T11:20:10.404Z,101987.91
2019-02-15T11:22:38.761Z,101984.53
2019-02-15T11:25:09.685Z,101983.98
2019-02-15T11:27:38.030Z,101978.15
2019-02-15T11:30:10.435Z,101980.39
2019-02-15T11:32:38.783Z,101974.31
2019-02-15T11:35:10.121Z,101961.61
2019-02-15T11:37:38.462Z,101960.03
2019-02-15T11:40:09.798Z,101960.91
2019-02-15T11:42:38.114Z,101957.21
2019-02-15T11:45:10.341Z,101947.30
2019-02-15T11:47:38.841Z,101949.75
2019-02-15T11:50:10.541Z,101941.59
2019-02-15T11:52:38.940Z,101943.72
2019-02-15T11:55:09.787Z,101933.64
2019-02-15T11:57:38.101Z,101935.23
2019-02-15T12:00:14.136Z,101933.70
2019-02-15T12:02:39.947Z,101930.18
2019-02-15T12:05:09.638Z,101917.87
2019-02-15T12:07:38.034Z,101920.81
2019-02-15T12:10:09.576Z,101915.35
2019-02-15T12:12:37.950Z,101913.04
2019-02-15T12:15:09.409Z,101905.56
2019-02-15T12:17:37.744Z,101901.00
2019-02-15T12:20:10.099Z,101897.92
2019-02-15T12:22:38.427Z,101897.56
2019-02-15T12:25:07.854Z,101887.67
2019-02-15T12:27:36.184Z,101886.70
2019-02-15T12:30:09.412Z,101882.38
2019-02-15T12:32:37.749Z,101881.63
2019-02-15T12:35:08.280Z,101876.42
2019-02-15T12:37:36.690Z,101870.56
2019-02-15T12:40:07.405Z,101867.01
2019-02-15T12:42:35.731Z,101862.91
2019-02-15T12:45:06.978Z,101853.78
2019-02-15T12:47:35.309Z,101847.33
2019-02-15T12:50:07.688Z,101849.97
2019-02-15T12:52:36.007Z,101844.66
2019-02-15T12:55:04.397Z,101844.11
2019-02-15T12:57:32.764Z,101840.39
2019-02-15T13:00:01.084Z,101842.42
2019-02-15T13:02:29.425Z,101833.65
2019-02-15T13:04:58.205Z,101830.13
2019-02-15T13:07:26.563Z,101825.81
2019-02-15T13:09:54.904Z,101826.20
2019-02-15T13:12:23.236Z,101815.68
2019-02-15T13:14:51.578Z,101812.99
2019-02-15T13:17:24.788Z,101811.14
2019-02-15T13:19:50.250Z,101808.11
2019-02-15T13:22:20.167Z,101805.09
2019-02-15T13:24:49.591Z,101803.00
2019-02-15T13:27:17.936Z,101797.62
2019-02-15T13:29:46.315Z,101789.79
2019-02-15T13:32:14.670Z,101785.61
2019-02-15T13:34:43.113Z,101781.91
2019-02-15T13:37:11.490Z,101777.05
2019-02-15T13:39:39.804Z,101768.81
2019-02-15T13:42:08.481Z,101763.27
2019-02-15T13:44:36.911Z,101761.42
2019-02-15T13:47:05.248Z,101759.76
2019-02-15T13:49:33.676Z,101752.52
2019-02-15T13:52:02.077Z,101753.17
2019-02-15T13:54:30.429Z,101752.86
2019-02-15T13:56:58.745Z,101745.61
2019-02-15T13:59:27.093Z,101749.81
2019-02-15T14:01:55.419Z,101743.92
2019-02-15T14:04:23.841Z,101744.92
2019-02-15T14:06:53.923Z,101746.25
2019-02-15T14:09:22.409Z,101738.83
2019-02-15T14:11:50.778Z,101735.59
2019-02-15T14:14:19.159Z,101735.45
2019-02-15T14:16:47.572Z,101737.14
2019-02-15T14:19:15.908Z,101730.23
2019-02-15T14:21:44.775Z,101721.02
2019-02-15T14:24:13.285Z,101718.94
2019-02-15T14:26:41.624Z,101721.41
2019-02-15T14:29:10.014Z,101720.14
2019-02-15T14:31:38.414Z,101715.77
2019-02-15T14:34:07.073Z,101714.57
2019-02-15T14:36:35.413Z,101709.03
2019-02-15T14:39:06.687Z,101705.98
2019-02-15T14:41:34.980Z,101702.77
2019-02-15T14:44:03.380Z,101709.66
2019-02-15T14:46:31.702Z,101710.84
2019-02-15T14:49:00.101Z,101706.26
2019-02-15T14:51:28.419Z,101699.70
2019-02-15T14:53:56.783Z,101697.27
2019-02-15T14:56:25.161Z,101696.08
2019-02-15T14:58:53.504Z,101682.59
2019-02-15T15:01:21.855Z,101689.06
2019-02-15T15:03:50.167Z,101682.33
2019-02-15T15:06:18.518Z,101680.29
2019-02-15T15:08:46.936Z,101679.12
2019-02-15T15:11:15.327Z,101677.71
2019-02-15T15:13:43.709Z,101666.38
2019-02-15T15:16:12.038Z,101664.68
2019-02-15T15:18:40.363Z,101657.65
2019-02-15T15:21:08.817Z,101661.11
2019-02-15T15:23:37.141Z,101653.00
2019-02-15T15:26:11.590Z,101649.38
2019-02-15T15:28:35.790Z,101651.98
2019-02-15T15:31:04.238Z,101650.44
2019-02-15T15:33:32.557Z,101644.30
2019-02-15T15:36:00.929Z,101644.59
2019-02-15T15:38:29.232Z,101647.80
2019-02-15T15:40:57.586Z,101645.94
2019-02-15T15:43:25.985Z,101640.88
2019-02-15T15:45:54.362Z,101637.88
2019-02-15T15:48:23.078Z,101636.27
2019-02-15T15:50:51.503Z,101638.32
2019-02-15T15:53:19.861Z,101642.25
2019-02-15T15:55:48.371Z,101636.87
2019-02-15T15:58:16.865Z,101636.56
2019-02-15T16:00:45.190Z,101632.19
2019-02-15T16:03:13.527Z,101630.88
2019-02-15T16:05:41.870Z,101634.43
2019-02-15T16:08:10.218Z,101629.72
2019-02-15T16:10:38.528Z,101628.38
2019-02-15T16:13:07.107Z,101628.05
2019-02-15T16:15:35.600Z,101621.83
2019-02-15T16:18:04.208Z,101623.52
2019-02-15T16:20:32.554Z,101621.85
2019-02-15T16:23:01.422Z,101626.70
2019-02-15T16:25:32.109Z,101622.76
2019-02-15T16:28:00.519Z,101618.03
2019-02-15T16:30:28.919Z,101620.19
2019-02-15T16:32:57.309Z,101629.22
2019-02-15T16:35:25.614Z,101635.52
2019-02-15T16:37:53.994Z,101628.25
2019-02-15T16:40:22.333Z,101629.86
2019-02-15T16:42:50.872Z,101624.83
2019-02-15T16:45:19.432Z,101627.13
2019-02-15T16:47:48.031Z,101633.59
2019-02-15T16:50:16.392Z,101635.78
2019-02-15T16:52:44.738Z,101641.75
2019-02-15T16:55:13.600Z,101641.86
2019-02-15T16:57:43.512Z,101640.11
2019-02-15T17:00:13.068Z,101641.91
2019-02-15T17:02:41.548Z,101646.02
2019-02-15T17:05:10.311Z,101640.68
2019-02-15T17:07:38.665Z,101640.02
2019-02-15T17:10:09.442Z,101645.05
2019-02-15T17:12:38.687Z,101648.47
2019-02-15T17:15:10.264Z,101655.83
2019-02-15T17:17:38.612Z,101655.73
2019-02-15T17:20:09.379Z,101656.30
2019-02-15T17:22:37.722Z,101648.28
2019-02-15T17:25:08.409Z,101650.73
2019-02-15T17:27:36.733Z,101655.33
2019-02-15T17:30:08.025Z,101654.23
2019-02-15T17:32:36.358Z,101652.02
2019-02-15T17:35:07.183Z,101651.70
2019-02-15T17:37:35.523Z,101653.43
2019-02-15T17:40:07.914Z,101654.59
2019-02-15T17:42:36.230Z,101653.41
2019-02-15T17:45:06.632Z,101648.89
2019-02-15T17:47:34.969Z,101648.79
2019-02-15T17:50:03.871Z,101643.20
2019-02-15T17:52:32.206Z,101646.59
2019-02-15T17:55:00.564Z,101643.52
2019-02-15T17:57:28.950Z,101644.23
2019-02-15T17:59:57.284Z,101646.48
2019-02-15T18:02:25.630Z,101637.32
2019-02-15T18:04:53.972Z,101647.27
2019-02-15T18:07:22.331Z,101647.49
2019-02-15T18:09:50.683Z,101646.80
2019-02-15T18:12:19.027Z,101638.35
2019-02-15T18:14:47.379Z,101636.88
2019-02-15T18:17:16.370Z,101637.09
2019-02-15T18:19:47.273Z,101642.29
2019-02-15T18:22:15.085Z,101634.24
2019-02-15T18:24:43.429Z,101637.61
2019-02-15T18:27:11.957Z,101633.06
2019-02-15T18:29:40.277Z,101634.94
2019-02-15T18:32:08.881Z,101633.92
2019-02-15T18:34:37.223Z,101637.11
2019-02-15T18:37:05.669Z,101639.89
2019-02-15T18:39:34.003Z,101632.38
2019-02-15T18:42:02.411Z,101637.98
2019-02-15T18:44:30.809Z,101645.06
2019-02-15T18:46:59.175Z,101644.58
2019-02-15T18:49:27.528Z,101650.23
2019-02-15T18:51:56.081Z,101644.13
2019-02-15T18:54:24.435Z,101643.05
2019-02-15T18:56:52.821Z,101640.84
2019-02-15T18:59:21.385Z,101638.23
2019-02-15T19:01:49.818Z,101646.03
2019-02-15T19:04:18.125Z,101640.13
2019-02-15T19:06:46.474Z,101635.05
2019-02-15T19:09:14.805Z,101633.85
2019-02-15T19:11:43.233Z,101635.84
2019-02-15T19:14:12.041Z,101627.31
2019-02-15T19:16:40.332Z,101629.32
2019-02-15T19:19:08.691Z,101627.69
2019-02-15T19:21:37.023Z,101632.00
2019-02-15T19:24:05.397Z,101628.83
2019-02-15T19:26:33.700Z,101620.61
2019-02-15T19:29:02.043Z,101618.77
2019-02-15T19:31:30.381Z,101619.96
2019-02-15T19:33:58.814Z,101618.97
2019-02-15T19:36:27.144Z,101620.11
2019-02-15T19:38:55.489Z,101618.99
2019-02-15T19:41:24.045Z,101614.11
2019-02-15T19:43:52.614Z,101619.73
2019-02-15T19:46:24.133Z,101620.63
2019-02-15T19:48:54.702Z,101611.42
2019-02-15T19:51:24.259Z,101613.11
2019-02-15T19:53:52.629Z,101614.19
2019-02-15T19:56:21.091Z,101611.52
2019-02-15T19:58:49.535Z,101615.14
2019-02-15T20:01:17.964Z,101621.77
2019-02-15T20:03:46.301Z,101616.52
2019-02-15T20:06:15.011Z,101613.11
2019-02-15T20:08:43.904Z,101614.68
2019-02-15T20:11:12.441Z,101612.61
2019-02-15T20:13:40.827Z,101606.09
2019-02-15T20:16:09.936Z,101610.34
2019-02-15T20:18:38.961Z,101611.53
2019-02-15T20:21:09.671Z,101604.20
2019-02-15T20:23:40.047Z,101603.89
2019-02-15T20:26:08.390Z,101607.83
2019-02-15T20:28:37.111Z,101610.20
2019-02-15T20:31:05.715Z,101606.30
2019-02-15T20:33:34.634Z,101606.92
2019-02-15T20:36:05.939Z,101603.03
2019-02-15T20:38:35.363Z,101604.69
2019-02-15T20:41:04.154Z,101605.11
2019-02-15T20:43:33.764Z,101606.34
2019-02-15T20:46:02.146Z,101599.32
2019-02-15T20:48:30.558Z,101602.83
2019-02-15T20:50:59.070Z,101603.75
2019-02-15T20:53:27.773Z,101598.65
2019-02-15T20:55:56.121Z,101600.52
2019-02-15T20:58:24.580Z,101603.14
2019-02-15T21:00:53.079Z,101597.70
2019-02-15T21:03:21.390Z,101597.66
2019-02-15T21:05:50.064Z,101598.51
2019-02-15T21:08:18.505Z,101593.07
2019-02-15T21:10:54.564Z,101597.24
2019-02-15T21:13:20.413Z,101594.08
2019-02-15T21:15:47.632Z,101586.76
2019-02-15T21:18:15.972Z,101587.81
2019-02-15T21:20:44.490Z,101583.95
2019-02-15T21:23:13.165Z,101586.70
2019-02-15T21:25:41.517Z,101582.00
2019-02-15T21:28:10.651Z,101578.06
2019-02-15T21:30:39.024Z,101577.17
2019-02-15T21:33:07.381Z,101582.02
2019-02-15T21:35:35.683Z,101573.03
2019-02-15T21:38:04.106Z,101571.98
2019-02-15T21:40:32.432Z,101573.53
2019-02-15T21:43:00.771Z,101579.95
2019-02-15T21:45:29.113Z,101580.80
2019-02-15T21:47:57.446Z,101570.72
2019-02-15T21:50:25.822Z,101571.81
2019-02-15T21:52:54.163Z,101566.16
2019-02-15T21:55:22.494Z,101563.98
2019-02-15T21:57:50.880Z,101563.67
2019-02-15T22:00:20.954Z,101566.58
2019-02-15T22:02:49.387Z,101561.84
2019-02-15T22:05:18.157Z,101560.22
2019-02-15T22:07:46.549Z,101561.68
2019-02-15T22:10:15.130Z,101568.62
2019-02-15T22:12:43.497Z,101568.05
2019-02-15T22:15:13.924Z,101562.26
2019-02-15T22:17:42.348Z,101557.91
2019-02-15T22:20:13.066Z,101558.56
2019-02-15T22:22:41.364Z,101563.31
2019-02-15T22:25:10.179Z,101557.93
2019-02-15T22:27:38.483Z,101554.09
2019-02-15T22:30:12.994Z,101554.77
2019-02-15T22:32:42.584Z,101553.03
2019-02-15T22:35:11.896Z,101552.41
2019-02-15T22:37:40.351Z,101551.34
2019-02-15T22:40:17.152Z,101550.88
2019-02-15T22:42:45.505Z,101549.67
2019-02-15T22:45:14.293Z,101542.95
2019-02-15T22:47:42.668Z,101537.54
2019-02-15T22:50:11.659Z,101536.23
2019-02-15T22:52:39.990Z,101539.80
2019-02-15T22:55:08.522Z,101532.37
2019-02-15T22:57:36.837Z,101533.47
2019-02-15T23:00:12.943Z,101527.25
2019-02-15T23:02:40.041Z,101529.34
2019-02-15T23:05:09.995Z,101529.57
2019-02-15T23:07:38.336Z,101524.91
2019-02-15T23:10:08.277Z,101518.17
2019-02-15T23:12:36.660Z,101521.45
2019-02-15T23:15:05.922Z,101520.25
2019-02-15T23:17:34.279Z,101519.18
2019-02-15T23:20:02.588Z,101515.69
2019-02-15T23:22:30.946Z,101517.28
2019-02-15T23:24:59.277Z,101515.47
2019-02-15T23:27:27.705Z,101517.41
2019-02-15T23:29:56.025Z,101511.87
2019-02-15T23:32:24.380Z,101510.94
2019-02-15T23:34:52.689Z,101512.53
2019-02-15T23:37:21.109Z,101513.11
2019-02-15T23:39:49.426Z,101515.23
2019-02-15T23:42:17.755Z,101514.38
2019-02-15T23:44:46.083Z,101506.95
2019-02-15T23:47:14.427Z,101509.88
2019-02-15T23:49:42.772Z,101515.42
2019-02-15T23:52:11.368Z,101513.53
2019-02-15T23:54:39.710Z,101512.70
2019-02-15T23:57:08.156Z,101510.88
2019-02-15T23:59:36.486Z,101512.72
